sensor_id;sensor_type;location;lat;lon;timestamp;P1;durP1;ratioP1;P2;durP2;ratioP2
20699;SDS011;10511;51.232;9.420;2023-07-16T00:01:05;0.80;;;0.80;;
20699;SDS011;10511;51.232;9.420;2023-07-16T00:03:32;0.80;;;0.80;;
20699;SDS011;10511;51.232;9.420;2023-07-16T00:06:06;1.20;;;1.20;;
20699;SDS011;10511;51.232;9.420;2023-07-16T00:08:33;1.37;;;1.37;;
20699;SDS011;10511;51.232;9.420;2023-07-16T00:11:00;1.20;;;1.20;;
20699;SDS011;10511;51.232;9.420;2023-07-16T00:13:29;1.23;;;1.23;;
20699;SDS011;10511;51.232;9.420;2023-07-16T00:15:56;1.47;;;1.47;;
20699;SDS011;10511;51.232;9.420;2023-07-16T00:18:23;1.40;;;1.40;;
20699;SDS011;10511;51.232;9.420;2023-07-16T00:20:50;1.50;;;1.50;;
20699;SDS011;10511;51.232;9.420;2023-07-16T00:23:18;1.50;;;1.50;;
20699;SDS011;10511;51.232;9.420;2023-07-16T00:25:45;1.50;;;1.50;;
20699;SDS011;10511;51.232;9.420;2023-07-16T00:28:12;1.53;;;1.53;;
20699;SDS011;10511;51.232;9.420;2023-07-16T00:30:39;1.00;;;1.00;;
20699;SDS011;10511;51.232;9.420;2023-07-16T00:33:06;1.23;;;1.23;;
20699;SDS011;10511;51.232;9.420;2023-07-16T00:35:33;1.30;;;1.30;;
20699;SDS011;10511;51.232;9.420;2023-07-16T00:38:00;1.10;;;1.10;;
20699;SDS011;10511;51.232;9.420;2023-07-16T00:40:29;1.60;;;1.60;;
20699;SDS011;10511;51.232;9.420;2023-07-16T00:42:55;1.10;;;1.10;;
20699;SDS011;10511;51.232;9.420;2023-07-16T00:45:22;1.30;;;1.30;;
20699;SDS011;10511;51.232;9.420;2023-07-16T00:47:49;1.37;;;1.37;;
20699;SDS011;10511;51.232;9.420;2023-07-16T00:50:17;0.80;;;0.80;;
20699;SDS011;10511;51.232;9.420;2023-07-16T00:52:44;1.00;;;1.00;;
20699;SDS011;10511;51.232;9.420;2023-07-16T00:55:11;1.70;;;1.70;;
20699;SDS011;10511;51.232;9.420;2023-07-16T00:57:40;1.47;;;1.47;;
20699;SDS011;10511;51.232;9.420;2023-07-16T01:00:07;1.93;;;1.83;;
20699;SDS011;10511;51.232;9.420;2023-07-16T01:02:36;1.70;;;1.70;;
20699;SDS011;10511;51.232;9.420;2023-07-16T01:05:03;2.07;;;1.97;;
20699;SDS011;10511;51.232;9.420;2023-07-16T01:07:31;1.90;;;1.80;;
20699;SDS011;10511;51.232;9.420;2023-07-16T01:09:59;1.70;;;1.70;;
20699;SDS011;10511;51.232;9.420;2023-07-16T01:12:27;1.77;;;1.77;;
20699;SDS011;10511;51.232;9.420;2023-07-16T01:14:57;1.40;;;1.40;;
20699;SDS011;10511;51.232;9.420;2023-07-16T01:17:24;1.27;;;1.27;;
20699;SDS011;10511;51.232;9.420;2023-07-16T01:19:51;1.50;;;1.50;;
20699;SDS011;10511;51.232;9.420;2023-07-16T01:22:25;1.47;;;1.47;;
20699;SDS011;10511;51.232;9.420;2023-07-16T01:28:06;1.03;;;1.03;;
20699;SDS011;10511;51.232;9.420;2023-07-16T01:30:55;1.30;;;1.30;;
20699;SDS011;10511;51.232;9.420;2023-07-16T01:33:24;1.20;;;1.20;;
20699;SDS011;10511;51.232;9.420;2023-07-16T01:35:52;1.30;;;1.30;;
20699;SDS011;10511;51.232;9.420;2023-07-16T01:38:20;1.50;;;1.50;;
20699;SDS011;10511;51.232;9.420;2023-07-16T01:40:48;1.37;;;1.37;;
20699;SDS011;10511;51.232;9.420;2023-07-16T01:43:15;1.00;;;1.00;;
20699;SDS011;10511;51.232;9.420;2023-07-16T01:45:42;0.80;;;0.80;;
20699;SDS011;10511;51.232;9.420;2023-07-16T01:48:14;0.90;;;0.90;;
20699;SDS011;10511;51.232;9.420;2023-07-16T01:50:50;0.70;;;0.70;;
20699;SDS011;10511;51.232;9.420;2023-07-16T01:53:17;0.70;;;0.70;;
20699;SDS011;10511;51.232;9.420;2023-07-16T01:55:44;0.80;;;0.80;;
20699;SDS011;10511;51.232;9.420;2023-07-16T01:58:11;1.83;;;1.73;;
20699;SDS011;10511;51.232;9.420;2023-07-16T02:00:38;2.13;;;2.03;;
20699;SDS011;10511;51.232;9.420;2023-07-16T02:03:05;0.83;;;0.83;;
20699;SDS011;10511;51.232;9.420;2023-07-16T02:05:34;1.70;;;1.70;;
20699;SDS011;10511;51.232;9.420;2023-07-16T02:08:01;1.50;;;1.50;;
20699;SDS011;10511;51.232;9.420;2023-07-16T02:10:28;1.47;;;1.47;;
20699;SDS011;10511;51.232;9.420;2023-07-16T02:12:55;1.30;;;1.30;;
20699;SDS011;10511;51.232;9.420;2023-07-16T02:15:22;0.70;;;0.70;;
20699;SDS011;10511;51.232;9.420;2023-07-16T02:17:48;0.67;;;0.67;;
20699;SDS011;10511;51.232;9.420;2023-07-16T02:20:15;0.70;;;0.70;;
20699;SDS011;10511;51.232;9.420;2023-07-16T02:22:44;0.90;;;0.90;;
20699;SDS011;10511;51.232;9.420;2023-07-16T02:25:11;0.70;;;0.70;;
20699;SDS011;10511;51.232;9.420;2023-07-16T02:27:38;0.80;;;0.80;;
20699;SDS011;10511;51.232;9.420;2023-07-16T02:30:05;0.70;;;0.70;;
20699;SDS011;10511;51.232;9.420;2023-07-16T02:32:33;0.70;;;0.70;;
20699;SDS011;10511;51.232;9.420;2023-07-16T02:35:00;0.77;;;0.77;;
20699;SDS011;10511;51.232;9.420;2023-07-16T02:37:28;1.50;;;1.50;;
20699;SDS011;10511;51.232;9.420;2023-07-16T02:39:56;1.10;;;1.10;;
20699;SDS011;10511;51.232;9.420;2023-07-16T02:42:23;1.50;;;1.50;;
20699;SDS011;10511;51.232;9.420;2023-07-16T02:44:51;1.00;;;1.00;;
20699;SDS011;10511;51.232;9.420;2023-07-16T02:47:18;2.20;;;2.10;;
20699;SDS011;10511;51.232;9.420;2023-07-16T02:49:45;0.83;;;0.83;;
20699;SDS011;10511;51.232;9.420;2023-07-16T02:52:12;0.90;;;0.90;;
20699;SDS011;10511;51.232;9.420;2023-07-16T02:54:39;0.90;;;0.90;;
20699;SDS011;10511;51.232;9.420;2023-07-16T02:57:07;0.70;;;0.70;;
20699;SDS011;10511;51.232;9.420;2023-07-16T02:59:34;0.80;;;0.80;;
20699;SDS011;10511;51.232;9.420;2023-07-16T03:02:01;0.73;;;0.73;;
20699;SDS011;10511;51.232;9.420;2023-07-16T03:04:28;1.00;;;1.00;;
20699;SDS011;10511;51.232;9.420;2023-07-16T03:06:55;1.00;;;1.00;;
20699;SDS011;10511;51.232;9.420;2023-07-16T03:09:22;0.80;;;0.80;;
20699;SDS011;10511;51.232;9.420;2023-07-16T03:11:49;0.83;;;0.83;;
20699;SDS011;10511;51.232;9.420;2023-07-16T03:14:17;1.00;;;1.00;;
20699;SDS011;10511;51.232;9.420;2023-07-16T03:16:44;1.00;;;1.00;;
20699;SDS011;10511;51.232;9.420;2023-07-16T03:19:11;0.90;;;0.90;;
20699;SDS011;10511;51.232;9.420;2023-07-16T03:21:38;0.90;;;0.90;;
20699;SDS011;10511;51.232;9.420;2023-07-16T03:24:05;1.00;;;1.00;;
20699;SDS011;10511;51.232;9.420;2023-07-16T03:26:32;1.07;;;1.07;;
20699;SDS011;10511;51.232;9.420;2023-07-16T03:28:59;0.80;;;0.80;;
20699;SDS011;10511;51.232;9.420;2023-07-16T03:31:27;0.80;;;0.80;;
20699;SDS011;10511;51.232;9.420;2023-07-16T03:33:54;0.70;;;0.70;;
20699;SDS011;10511;51.232;9.420;2023-07-16T03:36:21;0.80;;;0.80;;
20699;SDS011;10511;51.232;9.420;2023-07-16T03:38:48;0.70;;;0.70;;
20699;SDS011;10511;51.232;9.420;2023-07-16T03:41:15;0.70;;;0.70;;
20699;SDS011;10511;51.232;9.420;2023-07-16T03:43:42;0.70;;;0.70;;
20699;SDS011;10511;51.232;9.420;2023-07-16T03:46:09;0.70;;;0.70;;
20699;SDS011;10511;51.232;9.420;2023-07-16T03:48:37;0.70;;;0.70;;
20699;SDS011;10511;51.232;9.420;2023-07-16T03:51:04;0.70;;;0.70;;
20699;SDS011;10511;51.232;9.420;2023-07-16T03:53:31;0.70;;;0.70;;
20699;SDS011;10511;51.232;9.420;2023-07-16T03:55:58;0.80;;;0.80;;
20699;SDS011;10511;51.232;9.420;2023-07-16T03:58:25;0.80;;;0.80;;
20699;SDS011;10511;51.232;9.420;2023-07-16T04:00:54;0.83;;;0.83;;
20699;SDS011;10511;51.232;9.420;2023-07-16T04:03:21;0.80;;;0.80;;
20699;SDS011;10511;51.232;9.420;2023-07-16T04:05:50;0.90;;;0.90;;
20699;SDS011;10511;51.232;9.420;2023-07-16T04:08:17;0.80;;;0.80;;
20699;SDS011;10511;51.232;9.420;2023-07-16T04:10:45;0.90;;;0.90;;
20699;SDS011;10511;51.232;9.420;2023-07-16T04:13:12;0.80;;;0.80;;
20699;SDS011;10511;51.232;9.420;2023-07-16T04:15:39;0.90;;;0.90;;
20699;SDS011;10511;51.232;9.420;2023-07-16T04:18:05;0.80;;;0.80;;
20699;SDS011;10511;51.232;9.420;2023-07-16T04:20:34;0.90;;;0.90;;
20699;SDS011;10511;51.232;9.420;2023-07-16T04:23:02;1.20;;;1.20;;
20699;SDS011;10511;51.232;9.420;2023-07-16T04:25:29;0.97;;;0.97;;
20699;SDS011;10511;51.232;9.420;2023-07-16T04:27:56;1.10;;;1.10;;
20699;SDS011;10511;51.232;9.420;2023-07-16T04:30:23;0.77;;;0.77;;
20699;SDS011;10511;51.232;9.420;2023-07-16T04:32:50;0.80;;;0.80;;
20699;SDS011;10511;51.232;9.420;2023-07-16T04:35:17;1.07;;;1.07;;
20699;SDS011;10511;51.232;9.420;2023-07-16T04:37:44;1.03;;;1.03;;
20699;SDS011;10511;51.232;9.420;2023-07-16T04:40:12;1.27;;;1.27;;
20699;SDS011;10511;51.232;9.420;2023-07-16T04:42:39;1.10;;;1.10;;
20699;SDS011;10511;51.232;9.420;2023-07-16T04:45:07;1.20;;;1.20;;
20699;SDS011;10511;51.232;9.420;2023-07-16T04:47:34;0.80;;;0.80;;
20699;SDS011;10511;51.232;9.420;2023-07-16T04:50:01;0.80;;;0.80;;
20699;SDS011;10511;51.232;9.420;2023-07-16T04:52:28;0.97;;;0.97;;
20699;SDS011;10511;51.232;9.420;2023-07-16T04:54:55;0.80;;;0.80;;
20699;SDS011;10511;51.232;9.420;2023-07-16T04:57:23;0.80;;;0.80;;
20699;SDS011;10511;51.232;9.420;2023-07-16T04:59:50;0.80;;;0.80;;
20699;SDS011;10511;51.232;9.420;2023-07-16T05:02:17;0.90;;;0.90;;
20699;SDS011;10511;51.232;9.420;2023-07-16T05:04:44;0.80;;;0.80;;
20699;SDS011;10511;51.232;9.420;2023-07-16T05:07:13;0.80;;;0.80;;
20699;SDS011;10511;51.232;9.420;2023-07-16T05:09:40;0.80;;;0.80;;
20699;SDS011;10511;51.232;9.420;2023-07-16T05:12:08;0.80;;;0.80;;
20699;SDS011;10511;51.232;9.420;2023-07-16T05:14:43;1.00;;;1.00;;
20699;SDS011;10511;51.232;9.420;2023-07-16T05:17:11;0.80;;;0.80;;
20699;SDS011;10511;51.232;9.420;2023-07-16T05:19:38;1.03;;;1.03;;
20699;SDS011;10511;51.232;9.420;2023-07-16T05:22:06;1.07;;;1.07;;
20699;SDS011;10511;51.232;9.420;2023-07-16T05:24:33;0.80;;;0.80;;
20699;SDS011;10511;51.232;9.420;2023-07-16T05:27:00;1.10;;;1.10;;
20699;SDS011;10511;51.232;9.420;2023-07-16T05:29:27;0.90;;;0.90;;
20699;SDS011;10511;51.232;9.420;2023-07-16T05:31:56;1.10;;;1.10;;
20699;SDS011;10511;51.232;9.420;2023-07-16T05:34:23;1.20;;;1.20;;
20699;SDS011;10511;51.232;9.420;2023-07-16T05:36:52;1.10;;;1.10;;
20699;SDS011;10511;51.232;9.420;2023-07-16T05:39:19;1.00;;;1.00;;
20699;SDS011;10511;51.232;9.420;2023-07-16T05:41:47;1.20;;;1.20;;
20699;SDS011;10511;51.232;9.420;2023-07-16T05:44:15;0.97;;;0.97;;
20699;SDS011;10511;51.232;9.420;2023-07-16T05:46:42;1.40;;;1.40;;
20699;SDS011;10511;51.232;9.420;2023-07-16T05:49:10;1.20;;;1.20;;
20699;SDS011;10511;51.232;9.420;2023-07-16T05:51:37;1.07;;;1.07;;
20699;SDS011;10511;51.232;9.420;2023-07-16T05:54:04;0.70;;;0.70;;
20699;SDS011;10511;51.232;9.420;2023-07-16T05:56:31;1.10;;;1.10;;
20699;SDS011;10511;51.232;9.420;2023-07-16T05:58:58;1.67;;;1.67;;
20699;SDS011;10511;51.232;9.420;2023-07-16T06:01:25;0.70;;;0.70;;
20699;SDS011;10511;51.232;9.420;2023-07-16T06:03:52;0.93;;;0.93;;
20699;SDS011;10511;51.232;9.420;2023-07-16T06:06:21;1.07;;;1.07;;
20699;SDS011;10511;51.232;9.420;2023-07-16T06:08:48;0.80;;;0.80;;
20699;SDS011;10511;51.232;9.420;2023-07-16T06:11:15;0.80;;;0.80;;
20699;SDS011;10511;51.232;9.420;2023-07-16T06:13:42;1.20;;;1.20;;
20699;SDS011;10511;51.232;9.420;2023-07-16T06:16:09;0.60;;;0.60;;
20699;SDS011;10511;51.232;9.420;2023-07-16T06:18:35;0.70;;;0.70;;
20699;SDS011;10511;51.232;9.420;2023-07-16T06:21:02;0.77;;;0.77;;
20699;SDS011;10511;51.232;9.420;2023-07-16T06:23:31;1.20;;;1.20;;
20699;SDS011;10511;51.232;9.420;2023-07-16T06:25:58;1.10;;;1.10;;
20699;SDS011;10511;51.232;9.420;2023-07-16T06:28:25;1.13;;;1.13;;
20699;SDS011;10511;51.232;9.420;2023-07-16T06:30:52;0.80;;;0.80;;
20699;SDS011;10511;51.232;9.420;2023-07-16T06:33:19;0.70;;;0.70;;
20699;SDS011;10511;51.232;9.420;2023-07-16T06:35:46;0.80;;;0.80;;
20699;SDS011;10511;51.232;9.420;2023-07-16T06:38:13;0.80;;;0.80;;
20699;SDS011;10511;51.232;9.420;2023-07-16T06:40:46;0.90;;;0.90;;
20699;SDS011;10511;51.232;9.420;2023-07-16T06:43:14;1.13;;;1.13;;
20699;SDS011;10511;51.232;9.420;2023-07-16T06:45:41;0.70;;;0.70;;
20699;SDS011;10511;51.232;9.420;2023-07-16T06:48:08;0.83;;;0.83;;
20699;SDS011;10511;51.232;9.420;2023-07-16T06:50:36;0.90;;;0.90;;
20699;SDS011;10511;51.232;9.420;2023-07-16T06:53:03;1.00;;;1.00;;
20699;SDS011;10511;51.232;9.420;2023-07-16T06:55:29;0.80;;;0.80;;
20699;SDS011;10511;51.232;9.420;2023-07-16T06:57:58;0.80;;;0.80;;
20699;SDS011;10511;51.232;9.420;2023-07-16T07:00:26;0.80;;;0.80;;
20699;SDS011;10511;51.232;9.420;2023-07-16T07:02:53;0.70;;;0.70;;
20699;SDS011;10511;51.232;9.420;2023-07-16T07:05:20;0.70;;;0.70;;
20699;SDS011;10511;51.232;9.420;2023-07-16T07:07:47;0.70;;;0.70;;
20699;SDS011;10511;51.232;9.420;2023-07-16T07:10:14;0.70;;;0.70;;
20699;SDS011;10511;51.232;9.420;2023-07-16T07:12:41;1.37;;;1.37;;
20699;SDS011;10511;51.232;9.420;2023-07-16T07:15:10;0.80;;;0.80;;
20699;SDS011;10511;51.232;9.420;2023-07-16T07:17:37;0.70;;;0.70;;
20699;SDS011;10511;51.232;9.420;2023-07-16T07:20:04;0.70;;;0.70;;
20699;SDS011;10511;51.232;9.420;2023-07-16T07:22:32;0.80;;;0.80;;
20699;SDS011;10511;51.232;9.420;2023-07-16T07:24:59;0.70;;;0.70;;
20699;SDS011;10511;51.232;9.420;2023-07-16T07:27:26;0.70;;;0.70;;
20699;SDS011;10511;51.232;9.420;2023-07-16T07:29:53;0.70;;;0.70;;
20699;SDS011;10511;51.232;9.420;2023-07-16T07:32:22;0.70;;;0.70;;
20699;SDS011;10511;51.232;9.420;2023-07-16T07:34:49;0.70;;;0.70;;
20699;SDS011;10511;51.232;9.420;2023-07-16T07:37:16;1.13;;;1.13;;
20699;SDS011;10511;51.232;9.420;2023-07-16T07:39:43;0.97;;;0.97;;
20699;SDS011;10511;51.232;9.420;2023-07-16T07:42:12;1.20;;;1.20;;
20699;SDS011;10511;51.232;9.420;2023-07-16T07:44:39;1.30;;;1.30;;
20699;SDS011;10511;51.232;9.420;2023-07-16T07:47:07;1.10;;;1.10;;
20699;SDS011;10511;51.232;9.420;2023-07-16T07:49:35;0.70;;;0.70;;
20699;SDS011;10511;51.232;9.420;2023-07-16T07:52:03;0.80;;;0.80;;
20699;SDS011;10511;51.232;9.420;2023-07-16T07:54:31;0.80;;;0.80;;
20699;SDS011;10511;51.232;9.420;2023-07-16T07:57:00;0.80;;;0.80;;
20699;SDS011;10511;51.232;9.420;2023-07-16T07:59:29;0.83;;;0.83;;
20699;SDS011;10511;51.232;9.420;2023-07-16T08:01:56;1.53;;;1.53;;
20699;SDS011;10511;51.232;9.420;2023-07-16T08:04:23;1.30;;;1.30;;
20699;SDS011;10511;51.232;9.420;2023-07-16T08:06:53;0.97;;;0.97;;
20699;SDS011;10511;51.232;9.420;2023-07-16T08:09:20;0.70;;;0.70;;
20699;SDS011;10511;51.232;9.420;2023-07-16T08:11:47;0.80;;;0.80;;
20699;SDS011;10511;51.232;9.420;2023-07-16T08:14:14;1.40;;;1.40;;
20699;SDS011;10511;51.232;9.420;2023-07-16T08:16:41;1.37;;;1.37;;
20699;SDS011;10511;51.232;9.420;2023-07-16T08:19:08;0.87;;;0.87;;
20699;SDS011;10511;51.232;9.420;2023-07-16T08:21:35;0.90;;;0.90;;
20699;SDS011;10511;51.232;9.420;2023-07-16T08:24:04;0.73;;;0.73;;
20699;SDS011;10511;51.232;9.420;2023-07-16T08:26:32;0.70;;;0.70;;
20699;SDS011;10511;51.232;9.420;2023-07-16T08:28:59;0.80;;;0.80;;
20699;SDS011;10511;51.232;9.420;2023-07-16T08:31:26;1.10;;;1.10;;
20699;SDS011;10511;51.232;9.420;2023-07-16T08:33:53;0.70;;;0.70;;
20699;SDS011;10511;51.232;9.420;2023-07-16T08:36:20;0.83;;;0.83;;
20699;SDS011;10511;51.232;9.420;2023-07-16T08:38:47;0.70;;;0.70;;
20699;SDS011;10511;51.232;9.420;2023-07-16T08:41:15;1.23;;;1.23;;
20699;SDS011;10511;51.232;9.420;2023-07-16T08:43:44;0.70;;;0.70;;
20699;SDS011;10511;51.232;9.420;2023-07-16T08:46:12;1.07;;;1.07;;
20699;SDS011;10511;51.232;9.420;2023-07-16T08:48:39;0.90;;;0.90;;
20699;SDS011;10511;51.232;9.420;2023-07-16T08:51:07;0.60;;;0.60;;
20699;SDS011;10511;51.232;9.420;2023-07-16T08:53:36;0.70;;;0.70;;
20699;SDS011;10511;51.232;9.420;2023-07-16T08:56:04;0.70;;;0.70;;
20699;SDS011;10511;51.232;9.420;2023-07-16T08:58:35;0.70;;;0.70;;
20699;SDS011;10511;51.232;9.420;2023-07-16T09:01:03;0.70;;;0.70;;
20699;SDS011;10511;51.232;9.420;2023-07-16T09:03:31;0.70;;;0.70;;
20699;SDS011;10511;51.232;9.420;2023-07-16T09:05:58;0.80;;;0.80;;
20699;SDS011;10511;51.232;9.420;2023-07-16T09:08:25;0.90;;;0.90;;
20699;SDS011;10511;51.232;9.420;2023-07-16T09:10:54;0.60;;;0.60;;
20699;SDS011;10511;51.232;9.420;2023-07-16T09:13:21;0.70;;;0.70;;
20699;SDS011;10511;51.232;9.420;2023-07-16T09:15:53;0.90;;;0.90;;
20699;SDS011;10511;51.232;9.420;2023-07-16T09:18:21;1.03;;;1.03;;
20699;SDS011;10511;51.232;9.420;2023-07-16T09:20:48;1.00;;;1.00;;
20699;SDS011;10511;51.232;9.420;2023-07-16T09:23:16;1.10;;;1.10;;
20699;SDS011;10511;51.232;9.420;2023-07-16T09:25:44;1.53;;;1.53;;
20699;SDS011;10511;51.232;9.420;2023-07-16T09:28:11;0.70;;;0.70;;
20699;SDS011;10511;51.232;9.420;2023-07-16T09:30:38;0.80;;;0.80;;
20699;SDS011;10511;51.232;9.420;2023-07-16T09:33:14;1.20;;;1.20;;
20699;SDS011;10511;51.232;9.420;2023-07-16T09:35:42;0.70;;;0.70;;
20699;SDS011;10511;51.232;9.420;2023-07-16T09:38:10;1.07;;;1.07;;
20699;SDS011;10511;51.232;9.420;2023-07-16T09:40:39;1.00;;;1.00;;
20699;SDS011;10511;51.232;9.420;2023-07-16T09:43:07;1.00;;;1.00;;
20699;SDS011;10511;51.232;9.420;2023-07-16T09:45:35;0.77;;;0.77;;
20699;SDS011;10511;51.232;9.420;2023-07-16T09:48:02;0.70;;;0.70;;
20699;SDS011;10511;51.232;9.420;2023-07-16T09:50:31;0.70;;;0.70;;
20699;SDS011;10511;51.232;9.420;2023-07-16T09:53:00;0.67;;;0.67;;
20699;SDS011;10511;51.232;9.420;2023-07-16T09:55:28;0.60;;;0.60;;
20699;SDS011;10511;51.232;9.420;2023-07-16T09:57:58;0.70;;;0.70;;
20699;SDS011;10511;51.232;9.420;2023-07-16T10:00:27;0.70;;;0.70;;
20699;SDS011;10511;51.232;9.420;2023-07-16T10:02:57;0.67;;;0.67;;
20699;SDS011;10511;51.232;9.420;2023-07-16T10:05:24;0.70;;;0.70;;
20699;SDS011;10511;51.232;9.420;2023-07-16T10:07:54;0.83;;;0.83;;
20699;SDS011;10511;51.232;9.420;2023-07-16T10:10:26;0.60;;;0.60;;
20699;SDS011;10511;51.232;9.420;2023-07-16T10:13:03;0.70;;;0.70;;
20699;SDS011;10511;51.232;9.420;2023-07-16T10:15:30;0.70;;;0.70;;
20699;SDS011;10511;51.232;9.420;2023-07-16T10:17:58;0.60;;;0.60;;
20699;SDS011;10511;51.232;9.420;2023-07-16T10:20:28;0.60;;;0.60;;
20699;SDS011;10511;51.232;9.420;2023-07-16T10:22:57;0.60;;;0.60;;
20699;SDS011;10511;51.232;9.420;2023-07-16T10:25:25;0.60;;;0.60;;
20699;SDS011;10511;51.232;9.420;2023-07-16T10:27:55;0.60;;;0.60;;
20699;SDS011;10511;51.232;9.420;2023-07-16T10:30:22;0.60;;;0.60;;
20699;SDS011;10511;51.232;9.420;2023-07-16T10:32:50;0.60;;;0.60;;
20699;SDS011;10511;51.232;9.420;2023-07-16T10:35:18;0.70;;;0.70;;
20699;SDS011;10511;51.232;9.420;2023-07-16T10:37:45;1.00;;;1.00;;
20699;SDS011;10511;51.232;9.420;2023-07-16T10:40:14;1.00;;;1.00;;
20699;SDS011;10511;51.232;9.420;2023-07-16T10:42:42;0.60;;;0.60;;
20699;SDS011;10511;51.232;9.420;2023-07-16T10:45:11;0.60;;;0.60;;
20699;SDS011;10511;51.232;9.420;2023-07-16T10:47:39;0.60;;;0.60;;
20699;SDS011;10511;51.232;9.420;2023-07-16T10:50:16;0.70;;;0.70;;
20699;SDS011;10511;51.232;9.420;2023-07-16T10:52:46;0.80;;;0.80;;
20699;SDS011;10511;51.232;9.420;2023-07-16T10:55:19;0.60;;;0.60;;
20699;SDS011;10511;51.232;9.420;2023-07-16T10:57:46;0.70;;;0.70;;
20699;SDS011;10511;51.232;9.420;2023-07-16T11:00:14;0.87;;;0.87;;
20699;SDS011;10511;51.232;9.420;2023-07-16T11:02:42;0.80;;;0.80;;
20699;SDS011;10511;51.232;9.420;2023-07-16T11:05:09;0.60;;;0.60;;
20699;SDS011;10511;51.232;9.420;2023-07-16T11:07:37;1.00;;;1.00;;
20699;SDS011;10511;51.232;9.420;2023-07-16T11:10:04;0.63;;;0.63;;
20699;SDS011;10511;51.232;9.420;2023-07-16T11:12:34;0.70;;;0.70;;
20699;SDS011;10511;51.232;9.420;2023-07-16T11:15:01;0.70;;;0.70;;
20699;SDS011;10511;51.232;9.420;2023-07-16T11:17:29;0.70;;;0.70;;
20699;SDS011;10511;51.232;9.420;2023-07-16T11:19:59;1.00;;;1.00;;
20699;SDS011;10511;51.232;9.420;2023-07-16T11:22:27;0.80;;;0.80;;
20699;SDS011;10511;51.232;9.420;2023-07-16T11:24:54;1.00;;;1.00;;
20699;SDS011;10511;51.232;9.420;2023-07-16T11:27:22;0.60;;;0.60;;
20699;SDS011;10511;51.232;9.420;2023-07-16T11:29:51;0.60;;;0.60;;
20699;SDS011;10511;51.232;9.420;2023-07-16T11:32:26;0.80;;;0.80;;
20699;SDS011;10511;51.232;9.420;2023-07-16T11:34:54;0.60;;;0.60;;
20699;SDS011;10511;51.232;9.420;2023-07-16T11:37:24;0.70;;;0.70;;
20699;SDS011;10511;51.232;9.420;2023-07-16T11:39:54;0.80;;;0.80;;
20699;SDS011;10511;51.232;9.420;2023-07-16T11:42:27;0.70;;;0.70;;
20699;SDS011;10511;51.232;9.420;2023-07-16T11:44:56;0.57;;;0.57;;
20699;SDS011;10511;51.232;9.420;2023-07-16T11:47:23;0.60;;;0.60;;
20699;SDS011;10511;51.232;9.420;2023-07-16T11:49:50;0.63;;;0.63;;
20699;SDS011;10511;51.232;9.420;2023-07-16T11:52:18;0.50;;;0.50;;
20699;SDS011;10511;51.232;9.420;2023-07-16T11:54:56;0.60;;;0.60;;
20699;SDS011;10511;51.232;9.420;2023-07-16T11:57:25;1.40;;;1.40;;
20699;SDS011;10511;51.232;9.420;2023-07-16T11:59:53;0.60;;;0.60;;
20699;SDS011;10511;51.232;9.420;2023-07-16T12:02:21;1.00;;;1.00;;
20699;SDS011;10511;51.232;9.420;2023-07-16T12:04:50;0.60;;;0.60;;
20699;SDS011;10511;51.232;9.420;2023-07-16T12:07:19;0.77;;;0.77;;
20699;SDS011;10511;51.232;9.420;2023-07-16T12:09:57;0.80;;;0.80;;
20699;SDS011;10511;51.232;9.420;2023-07-16T12:12:24;0.70;;;0.70;;
20699;SDS011;10511;51.232;9.420;2023-07-16T12:14:51;0.50;;;0.50;;
20699;SDS011;10511;51.232;9.420;2023-07-16T12:17:18;1.00;;;1.00;;
20699;SDS011;10511;51.232;9.420;2023-07-16T12:19:46;0.90;;;0.90;;
20699;SDS011;10511;51.232;9.420;2023-07-16T12:22:13;1.07;;;1.07;;
20699;SDS011;10511;51.232;9.420;2023-07-16T12:24:43;0.93;;;0.93;;
20699;SDS011;10511;51.232;9.420;2023-07-16T12:27:10;0.80;;;0.80;;
20699;SDS011;10511;51.232;9.420;2023-07-16T12:29:37;0.77;;;0.77;;
20699;SDS011;10511;51.232;9.420;2023-07-16T12:32:04;0.60;;;0.60;;
20699;SDS011;10511;51.232;9.420;2023-07-16T12:34:33;0.60;;;0.60;;
20699;SDS011;10511;51.232;9.420;2023-07-16T12:37:02;0.50;;;0.50;;
20699;SDS011;10511;51.232;9.420;2023-07-16T12:39:29;0.60;;;0.60;;
20699;SDS011;10511;51.232;9.420;2023-07-16T12:41:56;0.50;;;0.50;;
20699;SDS011;10511;51.232;9.420;2023-07-16T12:44:23;0.50;;;0.50;;
20699;SDS011;10511;51.232;9.420;2023-07-16T12:46:50;0.50;;;0.50;;
20699;SDS011;10511;51.232;9.420;2023-07-16T12:49:17;0.63;;;0.63;;
20699;SDS011;10511;51.232;9.420;2023-07-16T12:51:45;0.70;;;0.70;;
20699;SDS011;10511;51.232;9.420;2023-07-16T12:54:13;0.80;;;0.80;;
20699;SDS011;10511;51.232;9.420;2023-07-16T12:56:40;0.60;;;0.60;;
20699;SDS011;10511;51.232;9.420;2023-07-16T12:59:07;0.60;;;0.60;;
20699;SDS011;10511;51.232;9.420;2023-07-16T13:01:34;0.60;;;0.60;;
20699;SDS011;10511;51.232;9.420;2023-07-16T13:04:01;0.57;;;0.57;;
20699;SDS011;10511;51.232;9.420;2023-07-16T13:06:28;0.70;;;0.70;;
20699;SDS011;10511;51.232;9.420;2023-07-16T13:08:55;0.60;;;0.60;;
20699;SDS011;10511;51.232;9.420;2023-07-16T13:11:24;0.60;;;0.60;;
20699;SDS011;10511;51.232;9.420;2023-07-16T13:13:51;0.60;;;0.60;;
20699;SDS011;10511;51.232;9.420;2023-07-16T13:16:18;0.90;;;0.90;;
20699;SDS011;10511;51.232;9.420;2023-07-16T13:18:45;0.80;;;0.80;;
20699;SDS011;10511;51.232;9.420;2023-07-16T13:21:12;1.23;;;1.23;;
20699;SDS011;10511;51.232;9.420;2023-07-16T13:23:39;0.50;;;0.50;;
20699;SDS011;10511;51.232;9.420;2023-07-16T13:26:06;0.60;;;0.60;;
20699;SDS011;10511;51.232;9.420;2023-07-16T13:28:34;0.50;;;0.50;;
20699;SDS011;10511;51.232;9.420;2023-07-16T13:31:01;0.57;;;0.57;;
20699;SDS011;10511;51.232;9.420;2023-07-16T13:33:28;0.70;;;0.70;;
20699;SDS011;10511;51.232;9.420;2023-07-16T13:35:55;0.60;;;0.60;;
20699;SDS011;10511;51.232;9.420;2023-07-16T13:38:25;0.60;;;0.60;;
20699;SDS011;10511;51.232;9.420;2023-07-16T13:40:52;0.50;;;0.50;;
20699;SDS011;10511;51.232;9.420;2023-07-16T13:43:19;0.50;;;0.50;;
20699;SDS011;10511;51.232;9.420;2023-07-16T13:45:47;0.63;;;0.63;;
20699;SDS011;10511;51.232;9.420;2023-07-16T13:48:14;0.77;;;0.77;;
20699;SDS011;10511;51.232;9.420;2023-07-16T13:50:41;0.90;;;0.90;;
20699;SDS011;10511;51.232;9.420;2023-07-16T13:53:08;0.70;;;0.70;;
20699;SDS011;10511;51.232;9.420;2023-07-16T13:55:35;0.60;;;0.60;;
20699;SDS011;10511;51.232;9.420;2023-07-16T13:58:02;0.50;;;0.50;;
20699;SDS011;10511;51.232;9.420;2023-07-16T14:00:29;0.50;;;0.50;;
20699;SDS011;10511;51.232;9.420;2023-07-16T14:02:57;0.50;;;0.50;;
20699;SDS011;10511;51.232;9.420;2023-07-16T14:05:24;0.50;;;0.50;;
20699;SDS011;10511;51.232;9.420;2023-07-16T14:07:52;0.50;;;0.50;;
20699;SDS011;10511;51.232;9.420;2023-07-16T14:10:19;0.40;;;0.40;;
20699;SDS011;10511;51.232;9.420;2023-07-16T14:12:46;0.40;;;0.40;;
20699;SDS011;10511;51.232;9.420;2023-07-16T14:15:13;0.50;;;0.50;;
20699;SDS011;10511;51.232;9.420;2023-07-16T14:17:39;0.53;;;0.53;;
20699;SDS011;10511;51.232;9.420;2023-07-16T14:20:09;0.50;;;0.50;;
20699;SDS011;10511;51.232;9.420;2023-07-16T14:22:36;0.60;;;0.60;;
20699;SDS011;10511;51.232;9.420;2023-07-16T14:25:03;0.50;;;0.50;;
20699;SDS011;10511;51.232;9.420;2023-07-16T14:27:31;0.50;;;0.50;;
20699;SDS011;10511;51.232;9.420;2023-07-16T14:29:58;0.50;;;0.50;;
20699;SDS011;10511;51.232;9.420;2023-07-16T14:32:25;0.43;;;0.43;;
20699;SDS011;10511;51.232;9.420;2023-07-16T14:34:52;0.60;;;0.60;;
20699;SDS011;10511;51.232;9.420;2023-07-16T14:37:20;0.63;;;0.63;;
20699;SDS011;10511;51.232;9.420;2023-07-16T14:39:47;0.70;;;0.70;;
20699;SDS011;10511;51.232;9.420;2023-07-16T14:42:14;0.80;;;0.80;;
20699;SDS011;10511;51.232;9.420;2023-07-16T14:44:41;0.80;;;0.80;;
20699;SDS011;10511;51.232;9.420;2023-07-16T14:47:08;0.80;;;0.80;;
20699;SDS011;10511;51.232;9.420;2023-07-16T14:49:35;0.80;;;0.80;;
20699;SDS011;10511;51.232;9.420;2023-07-16T14:52:02;1.10;;;1.10;;
20699;SDS011;10511;51.232;9.420;2023-07-16T14:54:30;0.97;;;0.97;;